Time;durP1;ratioP1;P1;durP2;ratioP2;P2;SDS_P1;SDS_P2;PMS_P1;PMS_P2;Temp;Humidity;BMP_temperature;BMP_pressure;BME280_temperature;BME280_humidity;BME280_pressure;Samples;Min_cycle;Max_cycle;Signal;HPM_P1;HPM_P2
2022/03/17 00:00:09;;;;;;;42.43;23.80;;;10.00;99.90;;;;;;5136177;27;20046;-77
2022/03/17 00:02:38;;;;;;;38.08;21.33;;;10.00;99.90;;;;;;5135302;27;20050;-77
2022/03/17 00:05:09;;;;;;;36.27;21.33;;;10.00;99.90;;;;;;5134587;27;20038;-76
2022/03/17 00:07:40;;;;;;;31.85;19.05;;;9.90;99.90;;;;;;5138730;27;20061;-77
2022/03/17 00:10:08;;;;;;;38.73;20.20;;;10.00;99.90;;;;;;5134239;27;20118;-77
2022/03/17 00:12:34;;;;;;;35.77;20.53;;;9.90;99.90;;;;;;5136965;27;20050;-77
2022/03/17 00:15:00;;;;;;;34.87;20.73;;;10.00;99.90;;;;;;5117048;27;20062;-76
2022/03/17 00:17:26;;;;;;;34.00;20.00;;;9.90;99.90;;;;;;5137909;27;20047;-77
2022/03/17 00:19:53;;;;;;;31.57;19.77;;;9.90;99.90;;;;;;5135411;27;20102;-76
2022/03/17 00:22:19;;;;;;;31.73;19.60;;;10.00;99.90;;;;;;5118930;27;20039;-76
2022/03/17 00:24:44;;;;;;;38.10;20.80;;;9.90;99.90;;;;;;5139424;27;20487;-76
2022/03/17 00:27:10;;;;;;;34.27;20.97;;;9.90;99.90;;;;;;5135567;27;20062;-77
2022/03/17 00:29:38;;;;;;;33.63;20.33;;;9.90;99.90;;;;;;5137772;27;20059;-76
2022/03/17 00:32:04;;;;;;;32.33;19.57;;;9.90;99.90;;;;;;5116439;27;20201;-76
2022/03/17 00:34:30;;;;;;;35.40;20.73;;;9.90;99.90;;;;;;5120792;27;20046;-76
2022/03/17 00:36:57;;;;;;;31.47;19.57;;;9.90;99.90;;;;;;5135227;27;20512;-76
2022/03/17 00:39:23;;;;;;;32.13;20.23;;;9.90;99.90;;;;;;5120315;27;20111;-76
2022/03/17 00:41:49;;;;;;;37.13;21.10;;;9.90;99.90;;;;;;5136808;27;20050;-77
2022/03/17 00:44:15;;;;;;;33.63;20.60;;;9.90;99.90;;;;;;5121597;27;20047;-76
2022/03/17 00:46:41;;;;;;;36.70;20.37;;;9.90;99.90;;;;;;5138694;27;20058;-76
2022/03/17 00:49:07;;;;;;;37.47;21.40;;;9.90;99.90;;;;;;5135301;27;20047;-75
2022/03/17 00:51:33;;;;;;;35.30;20.50;;;9.90;99.90;;;;;;5138440;27;20042;-76
2022/03/17 00:53:59;;;;;;;37.27;20.83;;;9.90;99.90;;;;;;5138014;27;20078;-76
2022/03/17 00:56:26;;;;;;;33.20;19.80;;;9.90;99.90;;;;;;5135911;27;20073;-75
2022/03/17 00:58:52;;;;;;;38.93;21.13;;;9.80;99.90;;;;;;5138053;27;20060;-77
2022/03/17 01:01:18;;;;;;;38.20;21.60;;;9.80;99.90;;;;;;5134601;27;20127;-77
2022/03/17 01:03:46;;;;;;;35.57;20.73;;;9.80;99.90;;;;;;5133556;27;20055;-76
2022/03/17 01:06:12;;;;;;;35.30;20.60;;;9.80;99.90;;;;;;5151268;27;20043;-76
2022/03/17 01:08:38;;;;;;;35.90;21.60;;;9.80;99.90;;;;;;5137417;27;20820;-77
2022/03/17 01:26:28;;;;;;;37.30;20.73;;;9.70;99.90;;;;;;4648702;23;20269;-84
2022/03/17 01:28:54;;;;;;;33.20;19.23;;;9.60;99.90;;;;;;5110973;24;20025;-78
2022/03/17 01:34:36;;;;;;;39.40;20.53;;;9.70;99.90;;;;;;5324864;24;20052;-85
2022/03/17 01:37:02;;;;;;;34.73;20.93;;;9.70;99.90;;;;;;4872451;29;20396;-84
2022/03/17 01:43:30;;;;;;;36.50;19.47;;;9.70;99.90;;;;;;4877465;29;20400;-83
2022/03/17 01:46:24;;;;;;;39.20;21.87;;;9.70;99.90;;;;;;4859117;24;20081;-85
2022/03/17 01:48:50;;;;;;;33.67;19.93;;;9.70;99.90;;;;;;4836563;29;20061;-84
2022/03/17 01:56:00;;;;;;;35.83;20.40;;;9.60;99.90;;;;;;4832243;29;20727;-83
2022/03/17 01:58:44;;;;;;;35.10;20.83;;;9.60;99.90;;;;;;4800699;29;20054;-83
2022/03/17 02:01:41;;;;;;;;;;;;;;;;;;;;;
2022/03/17 02:08:41;;;;;;;;;;;;;;;;;;;;;
2022/03/17 02:15:28;;;;;;;39.75;22.17;;;9.70;99.90;;;;;;4846982;29;20704;-83
2022/03/17 02:25:50;;;;;;;36.37;21.07;;;9.70;99.90;;;;;;4818172;29;20202;-83
2022/03/17 02:29:11;;;;;;;35.47;20.10;;;9.70;99.90;;;;;;4762851;30;20078;-83
2022/03/17 02:36:26;;;;;;;;;;;;;;;;;;;;;
2022/03/17 02:39:22;;;;;;;37.57;19.73;;;9.80;99.90;;;;;;4691005;30;20473;-82
2022/03/17 02:42:08;;;;;;;32.27;19.03;;;9.90;99.90;;;;;;4688296;30;20101;-82
2022/03/17 02:44:49;;;;;;;32.03;19.43;;;9.90;99.90;;;;;;4751764;29;20051;-83
2022/03/17 02:47:37;;;;;;;35.80;21.07;;;10.00;99.90;;;;;;4808262;29;20456;-83
2022/03/17 02:50:11;;;;;;;34.53;21.33;;;10.00;99.90;;;;;;4840812;29;20044;-84
2022/03/17 02:52:51;;;;;;;34.07;20.17;;;10.00;99.90;;;;;;4825298;29;20042;-82
2022/03/17 02:55:22;;;;;;;34.40;20.10;;;10.10;99.90;;;;;;4805814;29;20042;-82
2022/03/17 02:57:49;;;;;;;36.45;21.05;;;10.10;99.90;;;;;;4840814;29;20065;-82
2022/03/17 03:01:01;;;;;;;33.17;19.90;;;10.10;99.90;;;;;;4810569;29;20889;-84
2022/03/17 03:03:32;;;;;;;35.03;20.73;;;10.20;99.90;;;;;;4793529;29;20051;-83
2022/03/17 03:06:07;;;;;;;33.25;20.30;;;10.20;99.90;;;;;;4810338;29;20041;-82
2022/03/17 03:08:40;;;;;;;37.13;20.53;;;10.20;99.90;;;;;;4810361;29;20061;-83
2022/03/17 03:11:12;;;;;;;32.27;20.57;;;10.20;99.90;;;;;;4810149;29;20049;-83
2022/03/17 03:13:43;;;;;;;35.13;22.23;;;10.20;99.90;;;;;;4810234;29;20068;-82
2022/03/17 03:16:18;;;;;;;37.35;22.95;;;10.20;99.90;;;;;;4826073;29;20042;-82
2022/03/17 03:18:44;;;;;;;33.03;20.87;;;10.20;99.90;;;;;;4795516;29;20479;-83
2022/03/17 03:21:32;;;;;;;37.70;20.63;;;10.30;99.90;;;;;;4805745;29;20073;-82
2022/03/17 03:24:00;;;;;;;35.73;21.33;;;10.20;99.90;;;;;;4823105;29;20050;-83
2022/03/17 03:26:26;;;;;;;36.10;21.27;;;10.20;99.90;;;;;;4831135;29;20396;-82
2022/03/17 03:28:55;;;;;;;33.33;20.97;;;10.20;99.90;;;;;;4813222;29;20056;-82
2022/03/17 03:31:24;;;;;;;37.33;21.73;;;10.20;99.90;;;;;;4812830;29;20052;-83
2022/03/17 03:33:54;;;;;;;37.03;20.73;;;10.20;99.90;;;;;;4798392;29;20089;-82
2022/03/17 03:39:04;;;;;;;33.07;20.03;;;10.10;99.90;;;;;;4804659;29;20050;-82
2022/03/17 03:41:32;;;;;;;35.40;20.43;;;10.20;99.90;;;;;;4823983;29;20041;-82
2022/03/17 03:44:02;;;;;;;37.35;22.55;;;10.10;99.90;;;;;;4828135;29;20088;-81
2022/03/17 03:46:31;;;;;;;34.73;21.07;;;10.10;99.90;;;;;;4798228;29;20065;-83
2022/03/17 03:49:00;;;;;;;36.72;21.88;;;10.10;99.90;;;;;;4810479;29;20061;-82
2022/03/17 03:51:28;;;;;;;36.23;22.57;;;10.10;99.90;;;;;;4827909;29;20409;-82
2022/03/17 03:54:15;;;;;;;37.33;22.60;;;10.10;99.90;;;;;;4798197;29;20050;-82
2022/03/17 03:56:49;;;;;;;36.37;20.53;;;10.10;99.90;;;;;;4810714;29;20038;-82
2022/03/17 04:01:44;;;;;;;36.50;21.27;;;10.10;99.90;;;;;;4810864;29;20103;-81
2022/03/17 04:04:17;;;;;;;36.47;22.03;;;10.10;99.90;;;;;;4808367;29;20046;-82
2022/03/17 04:06:45;;;;;;;35.53;21.13;;;10.10;99.90;;;;;;4808458;29;20052;-82
2022/03/17 04:09:19;;;;;;;39.57;21.97;;;10.10;99.90;;;;;;4811782;29;20077;-81
2022/03/17 04:11:48;;;;;;;36.67;21.67;;;10.10;99.90;;;;;;4808104;29;20089;-83
2022/03/17 04:14:17;;;;;;;39.83;21.77;;;10.10;99.90;;;;;;4823297;29;20355;-81
2022/03/17 04:16:44;;;;;;;38.30;22.17;;;10.10;99.90;;;;;;4793049;29;20564;-81
2022/03/17 04:19:10;;;;;;;34.10;21.70;;;10.10;99.90;;;;;;4823993;29;20087;-83
2022/03/17 04:21:44;;;;;;;39.30;22.67;;;10.10;99.90;;;;;;4825352;29;20446;-83
2022/03/17 04:24:13;;;;;;;34.37;21.27;;;10.10;99.90;;;;;;4808642;29;20049;-82
2022/03/17 04:26:42;;;;;;;41.63;22.83;;;10.20;99.90;;;;;;4826281;29;20482;-81
2022/03/17 04:29:14;;;;;;;38.00;22.60;;;10.20;99.90;;;;;;4821209;29;20157;-81
2022/03/17 04:31:45;;;;;;;41.53;23.63;;;10.20;99.90;;;;;;4810581;29;20047;-82
2022/03/17 04:34:11;;;;;;;35.63;22.83;;;10.20;99.90;;;;;;4823219;29;20486;-81
2022/03/17 04:36:37;;;;;;;37.50;23.00;;;10.20;99.90;;;;;;4810153;29;20042;-81
2022/03/17 04:39:10;;;;;;;36.10;21.80;;;10.20;99.90;;;;;;4810817;29;20046;-83
2022/03/17 04:41:40;;;;;;;39.97;23.03;;;10.20;99.90;;;;;;4820738;29;20050;-82
2022/03/17 04:44:09;;;;;;;39.43;23.67;;;10.20;99.90;;;;;;4818796;29;20121;-82
2022/03/17 04:46:46;;;;;;;38.47;22.67;;;10.20;99.90;;;;;;4792635;29;20395;-82
2022/03/17 04:49:14;;;;;;;42.63;25.43;;;10.10;99.90;;;;;;4811232;29;20055;-81
2022/03/17 04:51:40;;;;;;;42.67;26.20;;;10.10;99.90;;;;;;4801106;29;20062;-83
2022/03/17 04:54:09;;;;;;;43.20;26.83;;;10.00;99.90;;;;;;4825052;29;20149;-84
2022/03/17 04:56:35;;;;;;;45.33;27.43;;;10.00;99.90;;;;;;4792892;29;20046;-81
2022/03/17 04:59:01;;;;;;;49.10;29.60;;;9.90;99.90;;;;;;4808208;29;20516;-82
2022/03/17 05:01:27;;;;;;;44.27;26.83;;;9.90;99.90;;;;;;4810682;29;20042;-81
2022/03/17 05:03:53;;;;;;;51.60;30.03;;;9.90;99.90;;;;;;4818631;29;20046;-80
2022/03/17 05:06:22;;;;;;;56.27;31.63;;;9.80;99.90;;;;;;4795814;29;20057;-80
2022/03/17 05:08:48;;;;;;;58.10;32.50;;;9.70;99.90;;;;;;4822629;29;20050;-80
2022/03/17 05:11:14;;;;;;;59.27;34.10;;;9.60;99.90;;;;;;4811244;29;20045;-81
2022/03/17 05:13:39;;;;;;;59.83;34.27;;;9.60;99.90;;;;;;4825422;29;20064;-79
2022/03/17 05:16:06;;;;;;;64.23;36.37;;;9.60;99.90;;;;;;4808556;29;20041;-80
2022/03/17 05:18:39;;;;;;;63.57;37.20;;;9.60;99.90;;;;;;4824047;29;20531;-82
2022/03/17 05:21:06;;;;;;;65.30;36.90;;;9.60;99.90;;;;;;4802691;29;20104;-82
2022/03/17 05:23:38;;;;;;;67.17;37.03;;;9.50;99.90;;;;;;4811230;29;20046;-80
2022/03/17 05:26:04;;;;;;;69.90;38.37;;;9.50;99.90;;;;;;4810262;29;21605;-79
2022/03/17 05:28:43;;;;;;;64.97;36.10;;;9.50;99.90;;;;;;4825580;29;20049;-83
2022/03/17 05:31:39;;;;;;;72.53;39.93;;;9.50;99.90;;;;;;4808903;29;20057;-81
2022/03/17 05:34:10;;;;;;;65.73;36.23;;;9.40;99.90;;;;;;4819425;29;20595;-84
2022/03/17 05:37:03;;;;;;;66.27;36.83;;;9.50;99.90;;;;;;4788286;29;20047;-84
2022/03/17 05:39:58;;;;;;;63.37;31.97;;;9.50;99.90;;;;;;4793598;29;20130;-83
2022/03/17 05:42:28;;;;;;;39.27;22.60;;;9.40;99.90;;;;;;4770230;30;20055;-83
2022/03/17 05:44:55;;;;;;;25.80;15.33;;;9.40;99.90;;;;;;4790488;29;20098;-82
2022/03/17 05:47:23;;;;;;;12.20;7.80;;;9.30;99.90;;;;;;4792934;29;20134;-82
2022/03/17 05:50:04;;;;;;;10.50;8.23;;;9.20;99.90;;;;;;4777333;29;20063;-83
2022/03/17 05:52:34;;;;;;;8.47;6.97;;;9.00;99.90;;;;;;4768568;29;20054;-82
2022/03/17 05:55:13;;;;;;;8.67;6.90;;;8.90;99.90;;;;;;4791374;29;20059;-84
2022/03/17 05:57:52;;;;;;;7.17;6.23;;;8.90;99.90;;;;;;4758763;29;20062;-82
2022/03/17 06:00:25;;;;;;;8.27;7.07;;;8.70;99.90;;;;;;4771826;29;20050;-83
2022/03/17 06:02:52;;;;;;;10.63;7.60;;;8.60;99.90;;;;;;4784867;29;20051;-81
2022/03/17 06:05:23;;;;;;;11.60;8.03;;;8.50;99.90;;;;;;4789875;29;20062;-83
2022/03/17 06:08:00;;;;;;;14.83;9.10;;;8.40;99.90;;;;;;4783976;29;20151;-83
2022/03/17 06:10:33;;;;;;;13.10;9.33;;;8.40;99.90;;;;;;4773899;29;20092;-83
2022/03/17 06:13:06;;;;;;;15.60;9.37;;;8.40;99.90;;;;;;4764669;29;20055;-81
2022/03/17 06:16:01;;;;;;;15.93;9.40;;;8.40;99.90;;;;;;4815259;29;20049;-85
2022/03/17 06:19:03;;;;;;;14.97;9.90;;;8.30;99.90;;;;;;4814330;29;20052;-84
2022/03/17 06:22:06;;;;;;;;;;;;;;;;;;;;;
2022/03/17 06:25:26;;;;;;;15.60;10.10;;;8.30;99.90;;;;;;4797403;29;20477;-84
2022/03/17 06:27:58;;;;;;;16.80;10.73;;;8.30;99.90;;;;;;4780221;29;20050;-85
2022/03/17 06:30:51;;;;;;;15.90;10.47;;;8.30;99.90;;;;;;4769327;30;20056;-85
2022/03/17 06:33:28;;;;;;;18.93;10.57;;;8.30;99.90;;;;;;4768786;30;20046;-86
2022/03/17 06:36:02;;;;;;;20.50;11.27;;;8.30;99.90;;;;;;4769170;30;20062;-86
2022/03/17 06:38:28;;;;;;;18.80;11.87;;;8.30;99.90;;;;;;4765470;29;20047;-85
2022/03/17 06:41:06;;;;;;;20.43;11.67;;;8.20;99.90;;;;;;4767185;29;20054;-89
2022/03/17 06:43:35;;;;;;;20.33;10.93;;;8.20;99.90;;;;;;4739782;30;20055;-90
2022/03/17 06:46:01;;;;;;;15.13;9.80;;;8.20;99.90;;;;;;4783979;29;20051;-89
2022/03/17 06:48:27;;;;;;;15.83;9.27;;;8.20;99.90;;;;;;4768798;30;20158;-89
2022/03/17 06:50:53;;;;;;;16.57;9.40;;;8.20;99.90;;;;;;4771777;30;20508;-91
2022/03/17 06:53:19;;;;;;;17.13;10.33;;;8.10;99.90;;;;;;4803569;29;20054;-89
2022/03/17 06:55:44;;;;;;;18.23;9.27;;;8.20;99.90;;;;;;4809893;29;20139;-89
2022/03/17 06:58:10;;;;;;;20.67;9.43;;;8.10;99.90;;;;;;4809872;29;20068;-88
2022/03/17 07:00:36;;;;;;;20.87;9.70;;;8.20;99.90;;;;;;4797970;29;20631;-89
2022/03/17 07:03:02;;;;;;;14.63;9.50;;;8.10;99.90;;;;;;4813582;29;20430;-88
2022/03/17 07:05:28;;;;;;;19.23;9.50;;;8.10;99.90;;;;;;4837030;29;20117;-90
2022/03/17 07:07:53;;;;;;;16.77;8.57;;;8.10;99.90;;;;;;4816493;29;20838;-90
2022/03/17 07:10:20;;;;;;;15.23;8.00;;;8.10;99.90;;;;;;4823512;29;20397;-88
2022/03/17 07:12:47;;;;;;;17.80;8.10;;;8.10;99.90;;;;;;4812988;29;20061;-87
2022/03/17 07:15:13;;;;;;;17.47;7.77;;;8.10;99.90;;;;;;4799237;29;20052;-90
2022/03/17 07:17:40;;;;;;;17.97;6.93;;;8.00;99.90;;;;;;4824953;29;20045;-91
2022/03/17 07:20:14;;;;;;;15.10;5.57;;;8.00;99.90;;;;;;4811833;29;20481;-88
2022/03/17 07:22:46;;;;;;;13.60;5.03;;;8.00;99.90;;;;;;4814984;29;20129;-89
2022/03/17 07:25:12;;;;;;;10.02;5.03;;;8.00;99.90;;;;;;4809645;29;20050;-90
2022/03/17 07:27:43;;;;;;;14.90;5.50;;;8.00;99.90;;;;;;4811484;29;20045;-90
2022/03/17 07:30:18;;;;;;;11.40;4.53;;;8.00;99.90;;;;;;4827964;29;20117;-88
2022/03/17 07:33:10;;;;;;;7.43;4.17;;;8.00;99.90;;;;;;4813334;29;20061;-85
2022/03/17 07:35:44;;;;;;;8.83;4.50;;;8.00;99.90;;;;;;4819549;29;20091;-88
2022/03/17 07:38:10;;;;;;;10.67;3.83;;;8.00;99.90;;;;;;4840446;29;20074;-86
2022/03/17 07:40:41;;;;;;;18.00;4.63;;;8.00;99.90;;;;;;4797938;29;20088;-89
2022/03/17 07:43:23;;;;;;;9.47;3.90;;;8.00;99.90;;;;;;4822952;29;20042;-86
2022/03/17 07:45:49;;;;;;;7.63;3.50;;;8.10;99.90;;;;;;4785977;29;20142;-89
2022/03/17 07:48:39;;;;;;;11.10;3.47;;;8.00;99.90;;;;;;4823905;29;20137;-89
2022/03/17 07:51:37;;;;;;;10.83;3.50;;;8.00;99.90;;;;;;4824108;29;20048;-87
2022/03/17 07:54:51;;;;;;;14.53;3.93;;;8.00;99.90;;;;;;4824558;29;20113;-89
2022/03/17 07:58:03;;;;;;;8.97;3.37;;;8.10;99.90;;;;;;4813750;29;20046;-88
2022/03/17 08:00:29;;;;;;;9.07;3.03;;;8.00;99.90;;;;;;4821340;29;20077;-89
2022/03/17 08:02:59;;;;;;;7.07;2.50;;;8.00;99.90;;;;;;4822799;29;20042;-88
2022/03/17 08:05:25;;;;;;;9.63;2.70;;;8.10;99.90;;;;;;4825139;29;20113;-89
2022/03/17 08:07:52;;;;;;;10.70;2.23;;;8.10;99.90;;;;;;4794168;29;20050;-86
2022/03/17 08:11:12;;;;;;;7.57;1.97;;;8.00;99.90;;;;;;4803056;29;20152;-84
2022/03/17 08:13:53;;;;;;;10.20;1.70;;;8.00;99.90;;;;;;4803045;29;20150;-87
2022/03/17 08:16:20;;;;;;;7.15;1.80;;;7.90;99.90;;;;;;4763969;30;20150;-86
2022/03/17 08:18:51;;;;;;;8.90;2.00;;;7.90;99.90;;;;;;4767597;30;20490;-87
2022/03/17 08:21:30;;;;;;;8.80;1.77;;;7.90;99.90;;;;;;4751880;30;20059;-87
2022/03/17 08:23:56;;;;;;;6.00;1.80;;;8.00;99.90;;;;;;4751038;30;20457;-87
2022/03/17 08:26:24;;;;;;;8.83;1.80;;;7.90;99.90;;;;;;4760452;30;20218;-86
2022/03/17 08:28:50;;;;;;;7.30;1.80;;;7.90;99.90;;;;;;4751790;30;20068;-88
2022/03/17 08:31:16;;;;;;;11.50;2.57;;;8.00;99.90;;;;;;4750876;30;20043;-88
2022/03/17 08:33:42;;;;;;;12.07;2.00;;;8.00;99.90;;;;;;4743275;30;20158;-88
2022/03/17 08:36:11;;;;;;;10.83;2.03;;;8.00;99.90;;;;;;4747207;30;20050;-86
2022/03/17 08:38:49;;;;;;;;;;;;;;;;;;;;;
2022/03/17 08:41:32;;;;;;;13.57;2.80;;;8.00;99.90;;;;;;4755325;30;20119;-85
2022/03/17 08:44:23;;;;;;;14.50;2.67;;;7.90;99.90;;;;;;4744366;30;20052;-86
2022/03/17 08:49:48;;;;;;;13.27;2.10;;;7.90;99.90;;;;;;4799542;29;20079;-85
2022/03/17 08:52:14;;;;;;;7.17;2.27;;;7.90;99.90;;;;;;4785306;29;20046;-86
2022/03/17 08:54:46;;;;;;;9.40;2.03;;;8.00;99.90;;;;;;4805249;29;20050;-85
2022/03/17 08:57:17;;;;;;;12.00;2.13;;;8.00;99.90;;;;;;4823511;29;20046;-86
2022/03/17 08:59:48;;;;;;;14.23;2.60;;;8.00;99.90;;;;;;4823718;29;20129;-85
2022/03/17 09:02:23;;;;;;;10.95;2.72;;;8.00;99.90;;;;;;4808438;29;20078;-85
2022/03/17 09:04:48;;;;;;;18.20;2.50;;;8.10;99.90;;;;;;4808030;29;20114;-87
2022/03/17 09:07:19;;;;;;;14.07;2.40;;;8.00;99.90;;;;;;4838354;29;20850;-87
2022/03/17 09:10:15;;;;;;;7.77;2.00;;;8.00;99.90;;;;;;4793131;29;20119;-86
2022/03/17 09:12:41;;;;;;;12.13;2.50;;;8.00;99.90;;;;;;4821289;29;20093;-87
2022/03/17 09:15:16;;;;;;;11.07;2.33;;;8.00;99.90;;;;;;4807418;29;20077;-86
2022/03/17 09:17:43;;;;;;;16.73;2.60;;;8.00;99.90;;;;;;4823092;29;20383;-87
2022/03/17 09:20:18;;;;;;;13.30;2.17;;;8.00;99.90;;;;;;4806671;29;20121;-86
2022/03/17 09:22:46;;;;;;;14.27;2.20;;;8.00;99.90;;;;;;4807573;29;20172;-86
2022/03/17 09:25:28;;;;;;;;;;;;;;;;;;;;;
2022/03/17 09:28:27;;;;;;;10.87;1.90;;;8.10;99.90;;;;;;4814958;29;20038;-86
2022/03/17 09:30:57;;;;;;;9.13;2.30;;;8.00;99.90;;;;;;4822288;29;20049;-88
2022/03/17 09:33:26;;;;;;;8.30;1.90;;;8.10;99.90;;;;;;4806482;29;20057;-87
2022/03/17 09:35:58;;;;;;;14.33;2.60;;;8.10;99.90;;;;;;4823925;29;20394;-85
2022/03/17 09:38:24;;;;;;;7.78;1.85;;;8.20;99.90;;;;;;4840768;29;20038;-84
2022/03/17 09:40:52;;;;;;;10.57;2.37;;;8.30;99.90;;;;;;4825855;29;20046;-86
2022/03/17 09:43:18;;;;;;;9.70;2.13;;;8.30;99.90;;;;;;4811062;29;20189;-85
2022/03/17 09:45:46;;;;;;;13.23;2.53;;;8.30;99.90;;;;;;4824361;29;20237;-86
2022/03/17 09:48:14;;;;;;;10.07;2.57;;;8.30;99.90;;;;;;4823231;29;20058;-85
2022/03/17 09:50:41;;;;;;;9.73;2.40;;;8.30;99.90;;;;;;4807337;29;20509;-85
2022/03/17 09:53:08;;;;;;;8.57;2.20;;;8.30;99.90;;;;;;4806286;29;20046;-86
2022/03/17 09:55:35;;;;;;;11.30;2.03;;;8.30;99.90;;;;;;4806328;29;20046;-87
2022/03/17 09:58:06;;;;;;;12.43;2.37;;;8.30;99.90;;;;;;4800634;29;20047;-87
2022/03/17 10:00:48;;;;;;;12.80;2.70;;;8.40;99.90;;;;;;4788849;29;20055;-86
2022/03/17 10:03:22;;;;;;;9.43;2.60;;;8.50;99.90;;;;;;4788671;29;20103;-87
2022/03/17 10:05:55;;;;;;;12.00;2.10;;;8.50;99.90;;;;;;4798756;29;20053;-87
2022/03/17 10:08:23;;;;;;;12.03;2.43;;;8.50;99.90;;;;;;4794888;29;20082;-86
2022/03/17 10:10:49;;;;;;;8.00;1.67;;;8.60;99.90;;;;;;4788280;29;20648;-87
2022/03/17 10:13:20;;;;;;;11.40;1.83;;;8.60;99.90;;;;;;4773677;29;20039;-86
2022/03/17 10:15:47;;;;;;;8.57;2.00;;;8.60;99.90;;;;;;4784743;29;20050;-87
2022/03/17 10:18:23;;;;;;;12.67;1.80;;;8.70;99.90;;;;;;4812275;29;20047;-87
2022/03/17 10:21:08;;;;;;;8.87;2.30;;;8.80;99.90;;;;;;4776240;29;20060;-87
2022/03/17 10:23:44;;;;;;;8.90;1.97;;;8.90;99.90;;;;;;4788385;29;20062;-86
2022/03/17 10:26:11;;;;;;;10.43;2.03;;;9.00;99.90;;;;;;4791770;29;20129;-85
2022/03/17 10:28:38;;;;;;;11.17;2.07;;;9.10;99.90;;;;;;4777268;29;20067;-87
2022/03/17 10:31:09;;;;;;;15.13;2.63;;;9.20;99.90;;;;;;4777646;29;20043;-86
2022/03/17 10:33:34;;;;;;;10.00;1.90;;;9.40;99.90;;;;;;4792438;29;20404;-86
2022/03/17 10:36:14;;;;;;;10.97;2.10;;;9.50;99.90;;;;;;4783252;29;20045;-85
2022/03/17 10:38:42;;;;;;;7.70;1.63;;;9.60;99.90;;;;;;4800768;29;20046;-86
2022/03/17 10:41:11;;;;;;;6.03;2.00;;;9.80;99.90;;;;;;4811997;29;20062;-84
2022/03/17 10:43:39;;;;;;;7.33;1.80;;;9.90;99.90;;;;;;4797510;29;20049;-86
2022/03/17 10:46:11;;;;;;;10.73;1.93;;;10.10;99.90;;;;;;4810478;29;20097;-85
2022/03/17 10:48:56;;;;;;;12.43;1.80;;;10.40;99.90;;;;;;4810374;29;20107;-85
2022/03/17 10:51:37;;;;;;;3.07;1.43;;;10.50;99.90;;;;;;4809840;29;20049;-86
2022/03/17 10:54:20;;;;;;;10.68;2.38;;;10.60;99.90;;;;;;4795459;29;20216;-85
2022/03/17 10:57:08;;;;;;;;;;;10.90;99.90;;;;;;4812364;29;20565;-86
2022/03/17 10:59:44;;;;;;;7.90;1.97;;;11.00;99.90;;;;;;4817196;29;20027;-86
2022/03/17 11:02:12;;;;;;;7.87;1.80;;;11.00;99.90;;;;;;4822707;29;20050;-86
2022/03/17 11:04:40;;;;;;;7.67;2.10;;;10.80;99.90;;;;;;4809586;29;20054;-86
2022/03/17 11:07:10;;;;;;;7.67;1.70;;;10.70;99.90;;;;;;4799616;29;20165;-85
2022/03/17 11:09:40;;;;;;;5.83;2.27;;;10.60;99.90;;;;;;4811077;29;20482;-85
2022/03/17 11:12:10;;;;;;;10.00;2.17;;;10.70;99.90;;;;;;4826486;29;20050;-85
2022/03/17 11:14:44;;;;;;;8.93;2.33;;;10.80;99.90;;;;;;4826420;29;20499;-85
2022/03/17 11:17:14;;;;;;;7.80;2.00;;;10.70;99.90;;;;;;4808447;29;20150;-85
2022/03/17 11:19:44;;;;;;;8.47;1.97;;;10.70;99.90;;;;;;4820516;29;20139;-85
2022/03/17 11:22:15;;;;;;;9.67;2.27;;;10.80;99.90;;;;;;4826122;29;20046;-86
2022/03/17 11:24:41;;;;;;;8.47;2.20;;;11.00;99.90;;;;;;4812109;29;20141;-86
2022/03/17 11:27:14;;;;;;;6.10;1.87;;;11.10;99.90;;;;;;4810360;29;20102;-84
2022/03/17 11:29:51;;;;;;;10.03;2.13;;;11.10;99.90;;;;;;4825711;29;20042;-85
2022/03/17 11:32:29;;;;;;;12.17;2.60;;;10.90;99.90;;;;;;4810839;29;20046;-86
2022/03/17 11:35:15;;;;;;;8.40;1.93;;;10.80;99.90;;;;;;4824797;29;20498;-85
2022/03/17 11:37:41;;;;;;;7.60;1.87;;;10.90;99.90;;;;;;4840456;29;20034;-85
2022/03/17 11:40:13;;;;;;;14.40;3.30;;;11.00;99.90;;;;;;4798045;29;20491;-85
2022/03/17 11:42:44;;;;;;;10.07;1.97;;;11.00;99.90;;;;;;4793321;29;20060;-87
2022/03/17 11:45:15;;;;;;;15.40;2.77;;;11.10;99.90;;;;;;4810509;29;20101;-85
2022/03/17 11:47:50;;;;;;;6.80;2.20;;;11.20;99.90;;;;;;4812050;29;20072;-84
2022/03/17 11:50:31;;;;;;;7.67;2.40;;;11.40;99.90;;;;;;4805343;29;20051;-84
2022/03/17 11:53:48;;;;;;;7.85;1.80;;;11.50;99.90;;;;;;4793918;29;20050;-85
2022/03/17 11:56:37;;;;;;;11.47;2.03;;;11.70;99.90;;;;;;4749065;29;20470;-86
2022/03/17 11:59:07;;;;;;;8.10;2.40;;;11.50;94.90;;;;;;4781795;29;20368;-85
2022/03/17 12:01:34;;;;;;;8.23;2.20;;;11.20;99.90;;;;;;4808513;29;20047;-85
2022/03/17 12:04:04;;;;;;;10.37;2.17;;;11.30;99.90;;;;;;4791356;29;20128;-85
2022/03/17 12:06:32;;;;;;;7.77;2.17;;;11.20;99.40;;;;;;4808100;29;20047;-86
2022/03/17 12:09:11;;;;;;;8.53;2.17;;;11.10;99.90;;;;;;4809899;29;20042;-85
2022/03/17 12:11:47;;;;;;;6.93;2.20;;;11.10;99.20;;;;;;4794296;29;20380;-85
2022/03/17 12:14:22;;;;;;;9.00;1.87;;;11.00;93.90;;;;;;4808059;29;20089;-86
2022/03/17 12:17:00;;;;;;;9.77;2.27;;;10.90;97.40;;;;;;4805143;29;20590;-85
2022/03/17 12:19:36;;;;;;;6.30;2.13;;;10.80;99.90;;;;;;4808037;29;20049;-85
2022/03/17 12:22:07;;;;;;;12.40;2.10;;;10.70;97.80;;;;;;4793047;29;20518;-85
2022/03/17 12:24:51;;;;;;;10.03;2.07;;;10.60;99.90;;;;;;4806312;29;20050;-88
2022/03/17 12:27:30;;;;;;;8.43;2.20;;;10.70;99.90;;;;;;4808569;29;20054;-84
2022/03/17 12:30:15;;;;;;;7.90;1.97;;;10.90;96.40;;;;;;4793190;29;20092;-86
2022/03/17 12:32:52;;;;;;;8.53;1.63;;;11.30;96.90;;;;;;4822275;29;20049;-85
2022/03/17 12:35:23;;;;;;;6.03;1.70;;;11.50;99.20;;;;;;4788858;29;20482;-85
2022/03/17 12:38:12;;;;;;;5.45;2.20;;;11.70;96.70;;;;;;4804531;29;20534;-84
2022/03/17 12:40:47;;;;;;;6.57;1.87;;;11.70;91.20;;;;;;4822973;29;20462;-85
2022/03/17 12:43:35;;;;;;;6.00;2.10;;;11.80;92.70;;;;;;4792248;29;20058;-85
2022/03/17 12:46:02;;;;;;;13.43;2.23;;;11.80;89.70;;;;;;4789481;29;20089;-86
2022/03/17 12:48:29;;;;;;;5.63;2.00;;;11.90;96.10;;;;;;4792015;29;20062;-85
2022/03/17 12:51:07;;;;;;;5.67;2.43;;;12.10;94.20;;;;;;4807638;29;20066;-84
2022/03/17 12:53:35;;;;;;;7.33;2.40;;;12.10;90.70;;;;;;4797113;29;20095;-84
2022/03/17 12:56:01;;;;;;;8.83;2.63;;;12.10;91.40;;;;;;4809050;29;20107;-86
2022/03/17 12:58:26;;;;;;;6.83;1.97;;;12.10;92.50;;;;;;4794250;29;20046;-85
2022/03/17 13:00:52;;;;;;;7.23;2.23;;;12.20;91.30;;;;;;4802322;29;20059;-84
2022/03/17 13:03:21;;;;;;;7.97;2.53;;;12.20;90.30;;;;;;4808750;29;20077;-85
2022/03/17 13:08:38;;;;;;;12.80;2.40;;;12.30;86.90;;;;;;4808534;29;20110;-85
2022/03/17 13:17:03;;;;;;;8.53;1.90;;;12.50;88.10;;;;;;4792598;29;20050;-86
2022/03/17 13:19:29;;;;;;;9.77;2.27;;;12.40;81.10;;;;;;4812592;29;20046;-85
2022/03/17 13:22:07;;;;;;;5.37;1.60;;;12.30;86.50;;;;;;4801098;29;20291;-86
2022/03/17 13:24:33;;;;;;;7.63;2.30;;;12.30;83.20;;;;;;4821385;29;20403;-86
2022/03/17 13:27:00;;;;;;;9.10;1.80;;;12.30;86.40;;;;;;4790053;29;20483;-86
2022/03/17 13:29:26;;;;;;;12.30;1.97;;;12.30;85.70;;;;;;4790428;29;20038;-87
2022/03/17 13:31:52;;;;;;;8.57;1.80;;;12.40;85.10;;;;;;4804782;29;20070;-87
2022/03/17 13:34:30;;;;;;;8.00;2.00;;;12.50;84.00;;;;;;4804319;29;20402;-85
2022/03/17 13:36:57;;;;;;;8.60;1.80;;;12.40;78.30;;;;;;4804059;29;20487;-85
2022/03/17 13:39:34;;;;;;;9.30;1.90;;;12.30;84.70;;;;;;4802509;29;20043;-85
2022/03/17 13:42:11;;;;;;;7.23;2.33;;;12.20;79.90;;;;;;4819548;29;20045;-87
2022/03/17 13:44:49;;;;;;;6.43;1.70;;;12.30;83.20;;;;;;4789854;29;20059;-84
2022/03/17 13:47:21;;;;;;;6.27;1.90;;;12.40;82.70;;;;;;4806491;29;20533;-87
2022/03/17 13:50:09;;;;;;;8.70;2.27;;;12.20;80.70;;;;;;4792694;29;20090;-85
2022/03/17 13:52:36;;;;;;;6.47;1.50;;;12.20;77.50;;;;;;4815070;29;20138;-86
2022/03/17 13:55:02;;;;;;;6.90;1.63;;;12.20;81.70;;;;;;4802072;29;20085;-85
2022/03/17 13:57:27;;;;;;;8.60;1.93;;;12.20;79.10;;;;;;4802808;29;20695;-83
2022/03/17 13:59:54;;;;;;;6.30;1.90;;;12.10;78.40;;;;;;4812483;29;20046;-83
2022/03/17 14:02:22;;;;;;;11.80;2.17;;;12.00;79.10;;;;;;4800794;29;20380;-85
2022/03/17 14:04:55;;;;;;;7.27;2.03;;;12.10;79.30;;;;;;4825261;29;20055;-84
2022/03/17 14:07:22;;;;;;;9.13;1.83;;;12.10;78.40;;;;;;4816186;29;20086;-86
2022/03/17 14:09:48;;;;;;;9.07;1.80;;;12.10;79.70;;;;;;4786653;29;20314;-85
2022/03/17 14:12:14;;;;;;;8.27;1.53;;;12.30;79.40;;;;;;4785315;29;20047;-84
2022/03/17 14:14:40;;;;;;;7.87;1.70;;;12.20;77.00;;;;;;4803393;29;20114;-84
2022/03/17 14:17:09;;;;;;;8.80;1.50;;;12.20;77.40;;;;;;4787617;29;20117;-84
2022/03/17 14:19:35;;;;;;;7.97;2.10;;;12.10;75.60;;;;;;4816237;29;20053;-85
2022/03/17 14:24:45;;;;;;;5.27;1.60;;;12.10;75.20;;;;;;4815926;29;20050;-83